KOLF/OLF METAR and TAF weather

Enter ICAO airport designator
Station Type Date Time Source
KOLF METAR 2019/12/10 05:53 UTC NOAA

KOLF 100553Z AUTO 24006KT 10SM CLR M23/M26 A3026 RMK AO2 SLP295 T12281256 11117 21239 51018


Station Type Date Time Source
KOLF Decoded METAR 2019/12/10 05:53 UTC NOAA

WOLF POINT CLAYTON AIRPORT, MT, United States (KOLF) 48-06N 105-35W 604M
Dec 10, 2019 - 12:53 AM EST / 2019.12.10 0553 UTC
Wind: from the WSW (240 degrees) at 7 MPH (6 KT):0
Visibility: 10 mile(s):0
Sky conditions: clear
Temperature: -9.0 F (-22.8 C)
Windchill: -23 F (-31 C):2
Dew Point: -14.1 F (-25.6 C)
Relative Humidity: 77%
Pressure (altimeter): 30.26 in. Hg (1024 hPa)
Pressure tendency: 0.05 inches (1.8 hPa) higher than three hours ago
ob: KOLF 100553Z AUTO 24006KT 10SM CLR M23/M26 A3026 RMK AO2 SLP295 T12281256 11117 21239 51018
cycle: 6

Station Type Date Time Source
KOLF TAF 2019/12/10 06:30 UTC NOAA

TAF KOLF 100528Z 1006/1106 VRB03KT P6SM FEW035
FM101600 VRB06KT P6SM BKN030

Example: see airport list